sensor_id;sensor_type;location;lat;lon;timestamp;pressure;altitude;pressure_sealevel;temperature;humidity
77639;BME280;66802;52.574;14.398;2023-09-08T03:02:04;102317.28;;;14.82;80.25
77639;BME280;66802;52.574;14.398;2023-09-08T03:04:29;102317.03;;;14.66;82.22
77639;BME280;66802;52.574;14.398;2023-09-08T03:06:55;102308.72;;;14.67;81.28
77639;BME280;66802;52.574;14.398;2023-09-08T03:09:21;102313.88;;;14.70;81.40
77639;BME280;66802;52.574;14.398;2023-09-08T03:11:46;102303.28;;;14.57;82.32
77639;BME280;66802;52.574;14.398;2023-09-08T03:14:12;102303.72;;;14.53;82.64
77639;BME280;66802;52.574;14.398;2023-09-08T03:16:37;102301.28;;;14.59;83.44
77639;BME280;66802;52.574;14.398;2023-09-08T03:19:03;102302.72;;;14.64;83.45
77639;BME280;66802;52.574;14.398;2023-09-08T03:21:29;102306.44;;;14.63;83.32
77639;BME280;66802;52.574;14.398;2023-09-08T03:23:54;102303.00;;;14.60;83.70
77639;BME280;66802;52.574;14.398;2023-09-08T03:26:20;102310.84;;;14.54;85.09
77639;BME280;66802;52.574;14.398;2023-09-08T03:28:45;102299.97;;;14.44;84.88
77639;BME280;66802;52.574;14.398;2023-09-08T03:31:11;102301.25;;;14.40;84.97
77639;BME280;66802;52.574;14.398;2023-09-08T03:33:37;102307.97;;;14.36;84.34
77639;BME280;66802;52.574;14.398;2023-09-08T03:36:02;102302.25;;;14.39;83.75
77639;BME280;66802;52.574;14.398;2023-09-08T03:38:28;102303.13;;;14.40;82.92
77639;BME280;66802;52.574;14.398;2023-09-08T03:40:54;102303.97;;;14.40;83.58
77639;BME280;66802;52.574;14.398;2023-09-08T03:43:19;102301.53;;;14.37;84.10
77639;BME280;66802;52.574;14.398;2023-09-08T03:45:45;102310.41;;;14.39;83.33
77639;BME280;66802;52.574;14.398;2023-09-08T03:48:11;102308.28;;;14.43;82.82
77639;BME280;66802;52.574;14.398;2023-09-08T03:50:36;102301.84;;;14.44;82.72
77639;BME280;66802;52.574;14.398;2023-09-08T03:53:02;102309.00;;;14.45;82.52
77639;BME280;66802;52.574;14.398;2023-09-08T03:55:28;102309.72;;;14.47;81.74
77639;BME280;66802;52.574;14.398;2023-09-08T03:57:53;102307.41;;;14.42;81.22
77639;BME280;66802;52.574;14.398;2023-09-08T04:00:19;102311.41;;;14.38;81.10
77639;BME280;66802;52.574;14.398;2023-09-08T04:02:48;102309.09;;;14.34;81.23
77639;BME280;66802;52.574;14.398;2023-09-08T04:05:15;102312.81;;;14.33;81.28
77639;BME280;66802;52.574;14.398;2023-09-08T04:07:41;102310.50;;;14.28;81.33
77639;BME280;66802;52.574;14.398;2023-09-08T04:10:07;102315.09;;;14.28;81.20
77639;BME280;66802;52.574;14.398;2023-09-08T04:12:32;102307.78;;;14.28;80.84
77639;BME280;66802;52.574;14.398;2023-09-08T04:14:58;102316.66;;;14.30;80.76
77639;BME280;66802;52.574;14.398;2023-09-08T04:17:23;102312.50;;;14.26;80.20
77639;BME280;66802;52.574;14.398;2023-09-08T04:19:49;102314.50;;;14.24;80.13
77639;BME280;66802;52.574;14.398;2023-09-08T04:22:15;102308.34;;;14.22;80.11
77639;BME280;66802;52.574;14.398;2023-09-08T04:24:40;102311.06;;;14.22;80.23
77639;BME280;66802;52.574;14.398;2023-09-08T04:27:06;102314.91;;;14.19;80.23
77639;BME280;66802;52.574;14.398;2023-09-08T04:29:33;102323.16;;;13.99;83.67
77639;BME280;66802;52.574;14.398;2023-09-08T04:31:59;102313.97;;;13.90;84.61
77639;BME280;66802;52.574;14.398;2023-09-08T04:34:25;102319.28;;;13.92;83.79
77639;BME280;66802;52.574;14.398;2023-09-08T04:36:50;102326.41;;;13.93;82.57
77639;BME280;66802;52.574;14.398;2023-09-08T04:39:16;102328.16;;;13.94;82.83
77639;BME280;66802;52.574;14.398;2023-09-08T04:41:41;102320.78;;;13.84;84.20
77639;BME280;66802;52.574;14.398;2023-09-08T04:44:07;102334.53;;;13.83;83.80
77639;BME280;66802;52.574;14.398;2023-09-08T04:46:34;102323.38;;;13.86;83.01
77639;BME280;66802;52.574;14.398;2023-09-08T04:49:00;102316.09;;;13.86;82.71
77639;BME280;66802;52.574;14.398;2023-09-08T04:51:25;102314.84;;;13.91;81.87
77639;BME280;66802;52.574;14.398;2023-09-08T04:53:51;102321.00;;;13.93;81.13
77639;BME280;66802;52.574;14.398;2023-09-08T04:56:16;102324.69;;;13.92;83.07
77639;BME280;66802;52.574;14.398;2023-09-08T04:58:42;102319.41;;;13.90;81.74
77639;BME280;66802;52.574;14.398;2023-09-08T05:01:07;102312.38;;;13.87;84.09
77639;BME280;66802;52.574;14.398;2023-09-08T05:03:33;102315.19;;;13.76;85.91
77639;BME280;66802;52.574;14.398;2023-09-08T05:05:58;102319.91;;;13.74;87.33
77639;BME280;66802;52.574;14.398;2023-09-08T05:08:24;102326.22;;;13.84;86.85
77639;BME280;66802;52.574;14.398;2023-09-08T05:10:49;102322.81;;;13.82;87.79
77639;BME280;66802;52.574;14.398;2023-09-08T05:13:16;102330.81;;;13.84;86.98
77639;BME280;66802;52.574;14.398;2023-09-08T05:15:42;102328.56;;;13.99;85.73
77639;BME280;66802;52.574;14.398;2023-09-08T05:18:09;102328.47;;;14.10;85.82
77639;BME280;66802;52.574;14.398;2023-09-08T05:20:35;102332.63;;;14.14;85.65
77639;BME280;66802;52.574;14.398;2023-09-08T05:23:00;102330.78;;;14.14;85.30
77639;BME280;66802;52.574;14.398;2023-09-08T05:25:26;102324.19;;;14.17;85.32
77639;BME280;66802;52.574;14.398;2023-09-08T05:27:51;102333.06;;;14.19;85.79
77639;BME280;66802;52.574;14.398;2023-09-08T05:30:17;102327.75;;;14.17;84.92
77639;BME280;66802;52.574;14.398;2023-09-08T05:32:43;102334.91;;;14.18;85.75
77639;BME280;66802;52.574;14.398;2023-09-08T05:35:09;102330.94;;;14.22;85.45
77639;BME280;66802;52.574;14.398;2023-09-08T05:37:35;102326.53;;;14.31;85.72
77639;BME280;66802;52.574;14.398;2023-09-08T05:40:00;102331.56;;;14.36;87.14
77639;BME280;66802;52.574;14.398;2023-09-08T05:42:26;102322.00;;;14.51;87.58
77639;BME280;66802;52.574;14.398;2023-09-08T05:44:51;102327.03;;;14.65;87.19
77639;BME280;66802;52.574;14.398;2023-09-08T05:47:20;102328.47;;;14.79;86.43
77639;BME280;66802;52.574;14.398;2023-09-08T05:49:45;102325.19;;;14.85;86.18
77639;BME280;66802;52.574;14.398;2023-09-08T05:52:11;102322.75;;;14.91;86.19
77639;BME280;66802;52.574;14.398;2023-09-08T05:54:36;102313.44;;;14.94;86.06
77639;BME280;66802;52.574;14.398;2023-09-08T05:57:02;102323.63;;;14.92;86.77
77639;BME280;66802;52.574;14.398;2023-09-08T05:59:27;102321.75;;;14.92;86.68
77639;BME280;66802;52.574;14.398;2023-09-08T06:01:53;102325.75;;;14.98;86.57
77639;BME280;66802;52.574;14.398;2023-09-08T06:04:19;102318.72;;;15.05;86.85
77639;BME280;66802;52.574;14.398;2023-09-08T06:06:44;102325.88;;;15.06;86.80
77639;BME280;66802;52.574;14.398;2023-09-08T06:09:10;102318.28;;;15.19;86.31
77639;BME280;66802;52.574;14.398;2023-09-08T06:11:37;102325.59;;;15.19;86.79
77639;BME280;66802;52.574;14.398;2023-09-08T06:14:03;102320.13;;;15.28;85.81
77639;BME280;66802;52.574;14.398;2023-09-08T06:16:28;102315.94;;;15.44;85.37
77639;BME280;66802;52.574;14.398;2023-09-08T06:18:54;102320.09;;;15.57;85.02
77639;BME280;66802;52.574;14.398;2023-09-08T06:21:19;102313.75;;;15.66;85.20
77639;BME280;66802;52.574;14.398;2023-09-08T06:23:45;102315.19;;;15.61;86.60
77639;BME280;66802;52.574;14.398;2023-09-08T06:26:11;102313.16;;;15.73;85.69
77639;BME280;66802;52.574;14.398;2023-09-08T06:28:37;102308.53;;;15.83;85.69
77639;BME280;66802;52.574;14.398;2023-09-08T06:31:04;102315.50;;;15.95;85.78
77639;BME280;66802;52.574;14.398;2023-09-08T06:33:30;102313.56;;;16.05;85.42
77639;BME280;66802;52.574;14.398;2023-09-08T06:35:55;102304.91;;;16.19;85.44
77639;BME280;66802;52.574;14.398;2023-09-08T06:38:21;102312.00;;;16.30;84.63
77639;BME280;66802;52.574;14.398;2023-09-08T06:40:46;102310.84;;;16.50;83.97
77639;BME280;66802;52.574;14.398;2023-09-08T06:43:13;102312.06;;;16.65;82.75
77639;BME280;66802;52.574;14.398;2023-09-08T06:45:38;102314.00;;;16.73;82.28
77639;BME280;66802;52.574;14.398;2023-09-08T06:48:05;102304.75;;;16.84;82.51
77639;BME280;66802;52.574;14.398;2023-09-08T06:50:31;102307.44;;;17.01;81.12
77639;BME280;66802;52.574;14.398;2023-09-08T06:52:56;102310.81;;;17.21;80.09
77639;BME280;66802;52.574;14.398;2023-09-08T06:55:22;102311.81;;;17.38;79.40
77639;BME280;66802;52.574;14.398;2023-09-08T06:57:47;102306.94;;;17.49;78.98
77639;BME280;66802;52.574;14.398;2023-09-08T07:00:13;102316.59;;;17.62;77.85
77639;BME280;66802;52.574;14.398;2023-09-08T07:02:40;102317.53;;;17.78;76.81
77639;BME280;66802;52.574;14.398;2023-09-08T07:05:06;102320.47;;;17.85;77.51
77639;BME280;66802;52.574;14.398;2023-09-08T07:07:35;102310.09;;;17.97;77.64
77639;BME280;66802;52.574;14.398;2023-09-08T07:10:02;102312.06;;;18.12;76.68
77639;BME280;66802;52.574;14.398;2023-09-08T07:12:27;102313.34;;;18.34;75.53
77639;BME280;66802;52.574;14.398;2023-09-08T07:14:53;102306.69;;;18.45;74.87
77639;BME280;66802;52.574;14.398;2023-09-08T07:17:19;102313.75;;;18.64;73.22
77639;BME280;66802;52.574;14.398;2023-09-08T07:19:45;102306.09;;;18.75;72.97
77639;BME280;66802;52.574;14.398;2023-09-08T07:22:10;102311.38;;;18.93;72.64
77639;BME280;66802;52.574;14.398;2023-09-08T07:24:36;102314.84;;;19.03;72.56
77639;BME280;66802;52.574;14.398;2023-09-08T07:27:01;102301.31;;;19.10;72.77
77639;BME280;66802;52.574;14.398;2023-09-08T07:29:27;102296.84;;;19.25;73.06
77639;BME280;66802;52.574;14.398;2023-09-08T07:31:53;102300.25;;;19.43;73.77
77639;BME280;66802;52.574;14.398;2023-09-08T07:34:19;102298.69;;;19.65;72.40
77639;BME280;66802;52.574;14.398;2023-09-08T07:36:44;102299.00;;;19.78;72.26
77639;BME280;66802;52.574;14.398;2023-09-08T07:39:10;102301.66;;;19.94;71.31
77639;BME280;66802;52.574;14.398;2023-09-08T07:41:35;102297.44;;;20.15;70.79
77639;BME280;66802;52.574;14.398;2023-09-08T07:44:01;102296.50;;;20.38;68.03
77639;BME280;66802;52.574;14.398;2023-09-08T07:46:27;102294.53;;;20.47;68.08
77639;BME280;66802;52.574;14.398;2023-09-08T07:48:53;102290.16;;;20.61;68.32
77639;BME280;66802;52.574;14.398;2023-09-08T07:51:18;102296.53;;;20.84;66.57
77639;BME280;66802;52.574;14.398;2023-09-08T07:53:44;102301.09;;;20.92;67.38
77639;BME280;66802;52.574;14.398;2023-09-08T07:56:09;102299.97;;;21.01;68.29
77639;BME280;66802;52.574;14.398;2023-09-08T07:58:36;102301.00;;;21.23;66.14
77639;BME280;66802;52.574;14.398;2023-09-08T08:01:01;102303.44;;;21.40;64.51
77639;BME280;66802;52.574;14.398;2023-09-08T08:03:27;102303.72;;;21.60;63.58
77639;BME280;66802;52.574;14.398;2023-09-08T08:05:52;102302.41;;;21.71;63.14
77639;BME280;66802;52.574;14.398;2023-09-08T08:08:18;102297.28;;;21.82;62.93
77639;BME280;66802;52.574;14.398;2023-09-08T08:10:43;102292.59;;;21.98;62.25
77639;BME280;66802;52.574;14.398;2023-09-08T08:13:09;102296.03;;;22.14;61.48
77639;BME280;66802;52.574;14.398;2023-09-08T08:15:37;102290.03;;;22.26;61.90
77639;BME280;66802;52.574;14.398;2023-09-08T08:18:04;102295.09;;;22.43;61.81
77639;BME280;66802;52.574;14.398;2023-09-08T08:20:30;102289.44;;;22.66;60.01
77639;BME280;66802;52.574;14.398;2023-09-08T08:23:03;102296.34;;;22.77;59.14
77639;BME280;66802;52.574;14.398;2023-09-08T08:25:28;102292.59;;;22.84;59.40
77639;BME280;66802;52.574;14.398;2023-09-08T08:27:54;102298.25;;;22.98;58.92
77639;BME280;66802;52.574;14.398;2023-09-08T08:30:22;102296.47;;;23.11;57.98
77639;BME280;66802;52.574;14.398;2023-09-08T08:32:47;102285.75;;;23.23;57.61
77639;BME280;66802;52.574;14.398;2023-09-08T08:35:13;102284.34;;;23.34;58.54
77639;BME280;66802;52.574;14.398;2023-09-08T08:37:42;102286.81;;;23.50;57.19
77639;BME280;66802;52.574;14.398;2023-09-08T08:40:10;102290.97;;;23.67;57.70
77639;BME280;66802;52.574;14.398;2023-09-08T08:42:40;102290.44;;;23.85;57.30
77639;BME280;66802;52.574;14.398;2023-09-08T08:45:06;102288.81;;;24.03;55.70
77639;BME280;66802;52.574;14.398;2023-09-08T08:47:32;102278.69;;;24.17;55.01
77639;BME280;66802;52.574;14.398;2023-09-08T08:49:59;102285.06;;;24.18;55.57
77639;BME280;66802;52.574;14.398;2023-09-08T08:52:29;102284.72;;;24.34;55.71
77639;BME280;66802;52.574;14.398;2023-09-08T08:54:55;102278.81;;;24.50;54.42
77639;BME280;66802;52.574;14.398;2023-09-08T08:57:22;102272.69;;;24.61;53.67
77639;BME280;66802;52.574;14.398;2023-09-08T08:59:49;102268.22;;;24.67;52.46
77639;BME280;66802;52.574;14.398;2023-09-08T09:02:18;102268.25;;;24.80;51.32
77639;BME280;66802;52.574;14.398;2023-09-08T09:04:45;102267.63;;;24.85;52.78
77639;BME280;66802;52.574;14.398;2023-09-08T09:07:11;102269.56;;;24.97;51.98
77639;BME280;66802;52.574;14.398;2023-09-08T09:09:37;102269.34;;;25.05;51.93
77639;BME280;66802;52.574;14.398;2023-09-08T09:12:05;102268.06;;;25.21;50.60
77639;BME280;66802;52.574;14.398;2023-09-08T09:14:34;102266.56;;;25.25;50.28
77639;BME280;66802;52.574;14.398;2023-09-08T09:17:00;102261.03;;;25.25;49.07
77639;BME280;66802;52.574;14.398;2023-09-08T09:19:27;102264.44;;;25.27;49.94
77639;BME280;66802;52.574;14.398;2023-09-08T09:21:55;102255.09;;;25.28;50.46
77639;BME280;66802;52.574;14.398;2023-09-08T09:24:33;102261.69;;;25.27;51.62
77639;BME280;66802;52.574;14.398;2023-09-08T09:27:00;102255.50;;;25.25;50.85
77639;BME280;66802;52.574;14.398;2023-09-08T09:29:27;102250.81;;;25.32;50.40
77639;BME280;66802;52.574;14.398;2023-09-08T09:32:04;102247.41;;;25.43;50.64
77639;BME280;66802;52.574;14.398;2023-09-08T09:34:34;102249.94;;;25.58;49.08
77639;BME280;66802;52.574;14.398;2023-09-08T09:37:00;102250.13;;;25.57;49.44
77639;BME280;66802;52.574;14.398;2023-09-08T09:39:26;102246.75;;;25.61;49.79
77639;BME280;66802;52.574;14.398;2023-09-08T09:41:57;102253.75;;;25.70;48.42
77639;BME280;66802;52.574;14.398;2023-09-08T09:44:23;102248.41;;;25.75;49.80
77639;BME280;66802;52.574;14.398;2023-09-08T09:46:52;102250.69;;;25.85;47.81
77639;BME280;66802;52.574;14.398;2023-09-08T09:49:18;102255.38;;;25.91;48.36
77639;BME280;66802;52.574;14.398;2023-09-08T09:51:49;102241.13;;;25.94;48.09
77639;BME280;66802;52.574;14.398;2023-09-08T09:54:16;102244.69;;;26.01;48.50
77639;BME280;66802;52.574;14.398;2023-09-08T09:56:44;102244.41;;;26.16;49.25
77639;BME280;66802;52.574;14.398;2023-09-08T09:59:12;102243.75;;;26.27;46.66
77639;BME280;66802;52.574;14.398;2023-09-08T10:01:39;102240.28;;;26.32;47.78
77639;BME280;66802;52.574;14.398;2023-09-08T10:04:06;102240.22;;;26.45;47.89
77639;BME280;66802;52.574;14.398;2023-09-08T10:06:33;102239.56;;;26.49;46.74
77639;BME280;66802;52.574;14.398;2023-09-08T10:09:04;102241.72;;;26.41;46.57
77639;BME280;66802;52.574;14.398;2023-09-08T10:11:49;102238.09;;;26.47;48.13
77639;BME280;66802;52.574;14.398;2023-09-08T10:14:15;102236.09;;;26.54;45.64
77639;BME280;66802;52.574;14.398;2023-09-08T10:16:44;102232.72;;;26.52;46.71
77639;BME280;66802;52.574;14.398;2023-09-08T10:19:11;102232.41;;;26.67;45.48
77639;BME280;66802;52.574;14.398;2023-09-08T10:21:45;102235.75;;;26.75;44.72
77639;BME280;66802;52.574;14.398;2023-09-08T10:24:18;102239.78;;;26.79;44.27
77639;BME280;66802;52.574;14.398;2023-09-08T10:26:58;102234.50;;;26.71;45.09
77639;BME280;66802;52.574;14.398;2023-09-08T10:29:27;102225.22;;;26.84;46.37
77639;BME280;66802;52.574;14.398;2023-09-08T10:31:54;102225.44;;;26.82;44.95
77639;BME280;66802;52.574;14.398;2023-09-08T10:34:24;102220.53;;;26.84;43.74
77639;BME280;66802;52.574;14.398;2023-09-08T10:36:51;102218.56;;;26.92;43.52
77639;BME280;66802;52.574;14.398;2023-09-08T10:39:43;102211.25;;;27.04;44.18
77639;BME280;66802;52.574;14.398;2023-09-08T10:47:24;102201.22;;;27.03;44.60
77639;BME280;66802;52.574;14.398;2023-09-08T10:49:52;102200.63;;;27.19;44.10
77639;BME280;66802;52.574;14.398;2023-09-08T10:52:24;102197.63;;;27.20;41.82
77639;BME280;66802;52.574;14.398;2023-09-08T10:54:54;102202.41;;;27.32;41.17
77639;BME280;66802;52.574;14.398;2023-09-08T10:57:25;102201.03;;;27.41;40.81
77639;BME280;66802;52.574;14.398;2023-09-08T10:59:57;102203.72;;;27.47;40.61
77639;BME280;66802;52.574;14.398;2023-09-08T11:02:47;102203.13;;;27.45;40.47
77639;BME280;66802;52.574;14.398;2023-09-08T11:05:14;102200.34;;;27.45;38.58
77639;BME280;66802;52.574;14.398;2023-09-08T11:07:44;102195.03;;;27.44;39.08
77639;BME280;66802;52.574;14.398;2023-09-08T11:10:12;102201.66;;;27.43;40.32
77639;BME280;66802;52.574;14.398;2023-09-08T11:12:38;102204.41;;;27.43;40.65
77639;BME280;66802;52.574;14.398;2023-09-08T11:15:06;102205.66;;;27.47;41.22
77639;BME280;66802;52.574;14.398;2023-09-08T11:17:35;102198.78;;;27.49;40.68
77639;BME280;66802;52.574;14.398;2023-09-08T11:20:02;102192.03;;;27.45;40.42
77639;BME280;66802;52.574;14.398;2023-09-08T11:22:37;102187.56;;;27.63;40.37
77639;BME280;66802;52.574;14.398;2023-09-08T11:25:03;102191.41;;;27.61;39.99
77639;BME280;66802;52.574;14.398;2023-09-08T11:27:32;102195.44;;;27.66;40.60
77639;BME280;66802;52.574;14.398;2023-09-08T11:29:58;102189.44;;;27.69;41.02
77639;BME280;66802;52.574;14.398;2023-09-08T11:32:24;102188.81;;;27.67;41.25
77639;BME280;66802;52.574;14.398;2023-09-08T11:34:50;102184.00;;;27.74;41.76
77639;BME280;66802;52.574;14.398;2023-09-08T11:37:18;102181.47;;;27.72;39.58
77639;BME280;66802;52.574;14.398;2023-09-08T11:39:45;102182.31;;;27.73;39.53
77639;BME280;66802;52.574;14.398;2023-09-08T11:42:13;102179.94;;;27.76;39.89
77639;BME280;66802;52.574;14.398;2023-09-08T11:44:40;102177.50;;;27.80;40.13
77639;BME280;66802;52.574;14.398;2023-09-08T11:47:07;102167.75;;;27.77;39.58
77639;BME280;66802;52.574;14.398;2023-09-08T11:49:35;102172.28;;;27.90;40.58
77639;BME280;66802;52.574;14.398;2023-09-08T11:52:01;102173.16;;;28.02;40.12
77639;BME280;66802;52.574;14.398;2023-09-08T11:54:27;102175.50;;;27.87;40.04
77639;BME280;66802;52.574;14.398;2023-09-08T11:56:54;102169.34;;;27.85;38.14
77639;BME280;66802;52.574;14.398;2023-09-08T11:59:20;102159.31;;;27.84;38.20
77639;BME280;66802;52.574;14.398;2023-09-08T12:01:46;102155.78;;;27.77;38.41
77639;BME280;66802;52.574;14.398;2023-09-08T12:04:19;102155.19;;;27.75;39.77
77639;BME280;66802;52.574;14.398;2023-09-08T12:06:48;102151.94;;;27.78;38.67
77639;BME280;66802;52.574;14.398;2023-09-08T12:09:14;102150.66;;;27.92;38.88
77639;BME280;66802;52.574;14.398;2023-09-08T12:11:40;102151.66;;;27.97;38.05
77639;BME280;66802;52.574;14.398;2023-09-08T12:14:12;102145.38;;;28.02;38.48
77639;BME280;66802;52.574;14.398;2023-09-08T12:16:38;102134.63;;;27.94;39.69
77639;BME280;66802;52.574;14.398;2023-09-08T12:19:04;102137.53;;;27.99;36.73
77639;BME280;66802;52.574;14.398;2023-09-08T12:21:31;102135.75;;;28.05;37.15
77639;BME280;66802;52.574;14.398;2023-09-08T12:23:58;102142.66;;;28.14;37.63
77639;BME280;66802;52.574;14.398;2023-09-08T12:26:27;102133.19;;;28.21;36.55
77639;BME280;66802;52.574;14.398;2023-09-08T12:28:53;102136.84;;;28.15;37.12
77639;BME280;66802;52.574;14.398;2023-09-08T12:31:18;102129.94;;;28.06;36.99
77639;BME280;66802;52.574;14.398;2023-09-08T12:33:44;102122.34;;;28.13;36.77
77639;BME280;66802;52.574;14.398;2023-09-08T12:36:15;102127.91;;;28.13;38.23
77639;BME280;66802;52.574;14.398;2023-09-08T12:38:41;102123.94;;;28.09;38.17
77639;BME280;66802;52.574;14.398;2023-09-08T12:41:07;102118.91;;;28.18;38.05
77639;BME280;66802;52.574;14.398;2023-09-08T12:43:32;102114.09;;;28.25;37.11
77639;BME280;66802;52.574;14.398;2023-09-08T12:45:58;102113.13;;;28.19;38.69
77639;BME280;66802;52.574;14.398;2023-09-08T12:48:24;102113.25;;;28.24;37.01
77639;BME280;66802;52.574;14.398;2023-09-08T12:50:50;102111.63;;;28.17;38.13
77639;BME280;66802;52.574;14.398;2023-09-08T12:53:16;102105.97;;;28.23;38.31
77639;BME280;66802;52.574;14.398;2023-09-08T12:55:43;102105.34;;;28.10;38.41
77639;BME280;66802;52.574;14.398;2023-09-08T12:58:09;102098.44;;;28.12;38.65
77639;BME280;66802;52.574;14.398;2023-09-08T13:00:34;102106.25;;;28.22;37.89
77639;BME280;66802;52.574;14.398;2023-09-08T13:02:59;102103.09;;;28.18;37.73
77639;BME280;66802;52.574;14.398;2023-09-08T13:05:27;102100.81;;;28.27;38.17
77639;BME280;66802;52.574;14.398;2023-09-08T13:07:53;102090.50;;;28.16;38.32
77639;BME280;66802;52.574;14.398;2023-09-08T13:10:19;102103.09;;;28.18;38.02
77639;BME280;66802;52.574;14.398;2023-09-08T13:12:45;102097.66;;;28.23;38.24
77639;BME280;66802;52.574;14.398;2023-09-08T13:15:11;102097.31;;;28.31;38.73
77639;BME280;66802;52.574;14.398;2023-09-08T13:17:36;102084.53;;;28.30;39.22
77639;BME280;66802;52.574;14.398;2023-09-08T13:20:02;102087.91;;;28.32;37.90
77639;BME280;66802;52.574;14.398;2023-09-08T13:22:28;102086.31;;;28.37;37.88
77639;BME280;66802;52.574;14.398;2023-09-08T13:24:54;102079.66;;;28.26;38.28
77639;BME280;66802;52.574;14.398;2023-09-08T13:27:20;102081.13;;;28.28;38.86
77639;BME280;66802;52.574;14.398;2023-09-08T13:29:46;102085.38;;;28.31;38.61
77639;BME280;66802;52.574;14.398;2023-09-08T13:32:11;102077.44;;;28.16;38.50
77639;BME280;66802;52.574;14.398;2023-09-08T13:34:37;102077.44;;;28.16;38.16
77639;BME280;66802;52.574;14.398;2023-09-08T13:37:04;102073.25;;;28.25;37.53
77639;BME280;66802;52.574;14.398;2023-09-08T13:39:30;102067.25;;;28.28;37.27
77639;BME280;66802;52.574;14.398;2023-09-08T13:41:58;102055.03;;;28.29;37.99
77639;BME280;66802;52.574;14.398;2023-09-08T13:44:24;102060.25;;;28.49;37.24
77639;BME280;66802;52.574;14.398;2023-09-08T13:46:50;102059.88;;;28.46;36.35
77639;BME280;66802;52.574;14.398;2023-09-08T13:49:17;102056.63;;;28.49;36.59
77639;BME280;66802;52.574;14.398;2023-09-08T13:51:44;102047.19;;;28.38;36.42
77639;BME280;66802;52.574;14.398;2023-09-08T13:54:13;102045.50;;;28.25;35.51
77639;BME280;66802;52.574;14.398;2023-09-08T13:56:40;102043.56;;;28.38;36.51
77639;BME280;66802;52.574;14.398;2023-09-08T13:59:07;102048.03;;;28.39;35.66
77639;BME280;66802;52.574;14.398;2023-09-08T14:01:34;102040.94;;;28.43;35.54
77639;BME280;66802;52.574;14.398;2023-09-08T14:03:59;102046.81;;;28.34;36.56
77639;BME280;66802;52.574;14.398;2023-09-08T14:06:27;102037.41;;;28.36;38.08
77639;BME280;66802;52.574;14.398;2023-09-08T14:08:52;102038.75;;;28.33;36.53
77639;BME280;66802;52.574;14.398;2023-09-08T14:11:19;102039.47;;;28.28;36.73
77639;BME280;66802;52.574;14.398;2023-09-08T14:13:44;102034.84;;;28.34;35.41
77639;BME280;66802;52.574;14.398;2023-09-08T14:16:13;102029.19;;;28.29;35.61
77639;BME280;66802;52.574;14.398;2023-09-08T14:18:39;102027.63;;;28.21;36.05
77639;BME280;66802;52.574;14.398;2023-09-08T14:21:06;102027.94;;;28.13;36.13
77639;BME280;66802;52.574;14.398;2023-09-08T14:23:32;102022.03;;;28.10;35.71
77639;BME280;66802;52.574;14.398;2023-09-08T14:25:59;102024.06;;;28.14;35.92
77639;BME280;66802;52.574;14.398;2023-09-08T14:28:25;102027.47;;;28.16;36.57
77639;BME280;66802;52.574;14.398;2023-09-08T14:30:52;102029.19;;;28.17;37.51
77639;BME280;66802;52.574;14.398;2023-09-08T14:33:17;102031.59;;;28.25;37.53
77639;BME280;66802;52.574;14.398;2023-09-08T14:35:44;102031.75;;;28.30;35.74
77639;BME280;66802;52.574;14.398;2023-09-08T14:38:13;102028.81;;;28.25;34.59
77639;BME280;66802;52.574;14.398;2023-09-08T14:40:41;102022.75;;;28.17;35.69
77639;BME280;66802;52.574;14.398;2023-09-08T14:43:07;102021.56;;;28.24;35.59
77639;BME280;66802;52.574;14.398;2023-09-08T14:45:32;102019.03;;;28.34;35.48
77639;BME280;66802;52.574;14.398;2023-09-08T14:47:58;102017.25;;;28.28;34.88
77639;BME280;66802;52.574;14.398;2023-09-08T14:50:24;102020.16;;;28.33;34.96
77639;BME280;66802;52.574;14.398;2023-09-08T14:52:49;102011.81;;;28.33;34.97
77639;BME280;66802;52.574;14.398;2023-09-08T14:55:15;102013.13;;;28.31;35.70
77639;BME280;66802;52.574;14.398;2023-09-08T14:57:40;102012.91;;;28.32;35.08
77639;BME280;66802;52.574;14.398;2023-09-08T15:00:08;102015.13;;;28.12;36.11
77639;BME280;66802;52.574;14.398;2023-09-08T15:02:34;102011.81;;;28.22;35.72
77639;BME280;66802;52.574;14.398;2023-09-08T15:05:00;102014.31;;;28.12;35.01
77639;BME280;66802;52.574;14.398;2023-09-08T15:07:26;102015.38;;;28.11;34.82
77639;BME280;66802;52.574;14.398;2023-09-08T15:09:51;102018.50;;;28.14;35.63
77639;BME280;66802;52.574;14.398;2023-09-08T15:12:17;102014.63;;;28.04;35.12
77639;BME280;66802;52.574;14.398;2023-09-08T15:14:43;102023.19;;;28.02;35.44
77639;BME280;66802;52.574;14.398;2023-09-08T15:17:11;102012.09;;;27.90;34.83
77639;BME280;66802;52.574;14.398;2023-09-08T15:19:38;102013.41;;;27.88;35.85
77639;BME280;66802;52.574;14.398;2023-09-08T15:22:04;102002.81;;;27.96;35.00
77639;BME280;66802;52.574;14.398;2023-09-08T15:24:29;101998.94;;;27.97;34.99
77639;BME280;66802;52.574;14.398;2023-09-08T15:26:55;102004.59;;;28.03;34.63
77639;BME280;66802;52.574;14.398;2023-09-08T15:29:23;101999.31;;;28.01;35.09
77639;BME280;66802;52.574;14.398;2023-09-08T15:31:48;102007.28;;;28.09;35.25
77639;BME280;66802;52.574;14.398;2023-09-08T15:34:14;102006.69;;;28.07;35.47
77639;BME280;66802;52.574;14.398;2023-09-08T15:36:40;101995.69;;;28.01;35.49
77639;BME280;66802;52.574;14.398;2023-09-08T15:39:05;101998.09;;;27.97;34.81
77639;BME280;66802;52.574;14.398;2023-09-08T15:41:31;101998.59;;;28.06;35.43
77639;BME280;66802;52.574;14.398;2023-09-08T15:43:56;101997.66;;;28.12;35.02